sensor_id;sensor_type;location;lat;lon;timestamp;pressure;altitude;pressure_sealevel;temperature;humidity
7918;BME280;4004;42.624;23.386;2023-02-21T00:00:07;94508.97;;;4.65;77.93
7918;BME280;4004;42.624;23.386;2023-02-21T00:02:52;94517.06;;;4.60;78.68
7918;BME280;4004;42.624;23.386;2023-02-21T00:05:37;94517.34;;;4.49;77.98
7918;BME280;4004;42.624;23.386;2023-02-21T00:08:21;94520.69;;;4.32;78.83
7918;BME280;4004;42.624;23.386;2023-02-21T00:11:04;94519.75;;;4.06;79.47
7918;BME280;4004;42.624;23.386;2023-02-21T00:13:49;94501.44;;;4.04;79.94
7918;BME280;4004;42.624;23.386;2023-02-21T00:16:33;94501.81;;;4.11;79.60
7918;BME280;4004;42.624;23.386;2023-02-21T00:19:18;94512.78;;;4.19;79.95
7918;BME280;4004;42.624;23.386;2023-02-21T00:22:03;94518.03;;;4.32;79.20
7918;BME280;4004;42.624;23.386;2023-02-21T00:24:47;94512.47;;;4.43;79.00
7918;BME280;4004;42.624;23.386;2023-02-21T00:27:31;94510.09;;;4.41;78.40
7918;BME280;4004;42.624;23.386;2023-02-21T00:30:15;94516.97;;;4.42;78.85
7918;BME280;4004;42.624;23.386;2023-02-21T00:32:59;94497.41;;;4.38;78.53
7918;BME280;4004;42.624;23.386;2023-02-21T00:35:45;94509.31;;;4.41;78.82
7918;BME280;4004;42.624;23.386;2023-02-21T00:38:29;94479.84;;;4.37;78.64
7918;BME280;4004;42.624;23.386;2023-02-21T00:41:13;94491.59;;;4.36;79.25
7918;BME280;4004;42.624;23.386;2023-02-21T00:43:57;94484.44;;;4.45;79.00
7918;BME280;4004;42.624;23.386;2023-02-21T00:46:43;94482.72;;;4.49;79.18
7918;BME280;4004;42.624;23.386;2023-02-21T00:49:27;94488.25;;;4.62;78.06
7918;BME280;4004;42.624;23.386;2023-02-21T00:52:12;94492.34;;;4.68;77.95
7918;BME280;4004;42.624;23.386;2023-02-21T00:54:57;94477.13;;;4.60;77.41
7918;BME280;4004;42.624;23.386;2023-02-21T00:57:41;94475.63;;;4.36;78.94
7918;BME280;4004;42.624;23.386;2023-02-21T01:00:25;94458.69;;;4.32;79.56
7918;BME280;4004;42.624;23.386;2023-02-21T01:03:09;94461.63;;;4.22;79.28
7918;BME280;4004;42.624;23.386;2023-02-21T01:05:53;94454.75;;;4.21;79.55
7918;BME280;4004;42.624;23.386;2023-02-21T01:08:41;94452.22;;;4.24;79.60
7918;BME280;4004;42.624;23.386;2023-02-21T01:11:25;94445.56;;;4.44;78.49
7918;BME280;4004;42.624;23.386;2023-02-21T01:14:10;94439.28;;;4.40;77.94
7918;BME280;4004;42.624;23.386;2023-02-21T01:16:54;94440.09;;;4.41;77.97
7918;BME280;4004;42.624;23.386;2023-02-21T01:19:38;94427.50;;;4.24;78.58
7918;BME280;4004;42.624;23.386;2023-02-21T01:22:22;94425.63;;;4.24;78.95
7918;BME280;4004;42.624;23.386;2023-02-21T01:25:08;94422.84;;;4.29;78.47
7918;BME280;4004;42.624;23.386;2023-02-21T01:27:53;94409.81;;;4.28;78.32
7918;BME280;4004;42.624;23.386;2023-02-21T01:30:37;94420.19;;;4.29;78.68
7918;BME280;4004;42.624;23.386;2023-02-21T01:33:21;94423.75;;;4.33;78.66
7918;BME280;4004;42.624;23.386;2023-02-21T01:36:06;94422.66;;;4.26;78.67
7918;BME280;4004;42.624;23.386;2023-02-21T01:38:50;94422.03;;;4.29;78.74
7918;BME280;4004;42.624;23.386;2023-02-21T01:41:36;94430.00;;;4.29;78.31
7918;BME280;4004;42.624;23.386;2023-02-21T01:44:31;94427.97;;;4.26;78.00
7918;BME280;4004;42.624;23.386;2023-02-21T01:47:16;94426.72;;;4.23;79.35
7918;BME280;4004;42.624;23.386;2023-02-21T01:50:02;94423.09;;;4.19;79.67
7918;BME280;4004;42.624;23.386;2023-02-21T01:52:48;94411.28;;;4.34;79.08
7918;BME280;4004;42.624;23.386;2023-02-21T01:55:33;94406.91;;;4.38;78.30
7918;BME280;4004;42.624;23.386;2023-02-21T01:58:22;94407.78;;;4.33;78.36
7918;BME280;4004;42.624;23.386;2023-02-21T02:01:09;94394.94;;;4.18;79.82
7918;BME280;4004;42.624;23.386;2023-02-21T02:03:56;94396.78;;;4.18;79.75
7918;BME280;4004;42.624;23.386;2023-02-21T02:06:42;94393.53;;;4.21;79.69
7918;BME280;4004;42.624;23.386;2023-02-21T02:09:26;94386.47;;;4.16;80.20
7918;BME280;4004;42.624;23.386;2023-02-21T02:12:23;94382.75;;;4.34;79.06
7918;BME280;4004;42.624;23.386;2023-02-21T02:15:10;94378.34;;;4.21;79.46
7918;BME280;4004;42.624;23.386;2023-02-21T02:17:53;94377.22;;;4.22;79.70
7918;BME280;4004;42.624;23.386;2023-02-21T02:26:59;94367.88;;;4.25;79.94
7918;BME280;4004;42.624;23.386;2023-02-21T02:29:47;94376.00;;;4.28;79.60
7918;BME280;4004;42.624;23.386;2023-02-21T02:32:36;94359.88;;;4.25;79.48
7918;BME280;4004;42.624;23.386;2023-02-21T02:35:08;94361.28;;;4.31;79.61
7918;BME280;4004;42.624;23.386;2023-02-21T02:37:43;94359.13;;;4.42;78.99
7918;BME280;4004;42.624;23.386;2023-02-21T02:40:18;94359.13;;;4.42;78.14
7918;BME280;4004;42.624;23.386;2023-02-21T02:42:54;94362.91;;;4.41;78.18
7918;BME280;4004;42.624;23.386;2023-02-21T02:45:29;94358.84;;;4.43;77.35
7918;BME280;4004;42.624;23.386;2023-02-21T02:48:01;94365.84;;;4.30;77.64
7918;BME280;4004;42.624;23.386;2023-02-21T02:50:31;94367.09;;;4.33;78.00
7918;BME280;4004;42.624;23.386;2023-02-21T02:53:01;94366.63;;;4.40;77.50
7918;BME280;4004;42.624;23.386;2023-02-21T02:55:36;94356.00;;;4.40;77.41
7918;BME280;4004;42.624;23.386;2023-02-21T02:58:05;94354.28;;;4.44;77.46
7918;BME280;4004;42.624;23.386;2023-02-21T03:00:35;94369.03;;;4.50;77.35
7918;BME280;4004;42.624;23.386;2023-02-21T03:03:16;94360.88;;;4.46;76.91
7918;BME280;4004;42.624;23.386;2023-02-21T03:06:00;94369.47;;;4.43;77.64
7918;BME280;4004;42.624;23.386;2023-02-21T03:08:39;94364.63;;;4.45;77.90
7918;BME280;4004;42.624;23.386;2023-02-21T03:11:13;94377.78;;;4.50;77.97
7918;BME280;4004;42.624;23.386;2023-02-21T03:13:45;94345.69;;;4.38;77.89
7918;BME280;4004;42.624;23.386;2023-02-21T03:16:18;94377.63;;;4.55;77.50
7918;BME280;4004;42.624;23.386;2023-02-21T03:18:51;94373.09;;;4.47;77.78
7918;BME280;4004;42.624;23.386;2023-02-21T03:21:24;94373.88;;;4.48;77.67
7918;BME280;4004;42.624;23.386;2023-02-21T03:23:53;94373.25;;;4.51;77.63
7918;BME280;4004;42.624;23.386;2023-02-21T03:26:21;94365.72;;;4.53;77.52
7918;BME280;4004;42.624;23.386;2023-02-21T03:28:49;94361.66;;;4.55;77.53
7918;BME280;4004;42.624;23.386;2023-02-21T03:31:18;94348.03;;;4.57;77.35
7918;BME280;4004;42.624;23.386;2023-02-21T03:33:47;94357.75;;;4.62;77.28
7918;BME280;4004;42.624;23.386;2023-02-21T03:36:14;94348.22;;;4.61;76.94
7918;BME280;4004;42.624;23.386;2023-02-21T03:38:43;94344.28;;;4.67;77.23
7918;BME280;4004;42.624;23.386;2023-02-21T03:41:10;94347.59;;;4.64;76.46
7918;BME280;4004;42.624;23.386;2023-02-21T03:43:38;94345.41;;;4.66;76.53
7918;BME280;4004;42.624;23.386;2023-02-21T03:46:04;94346.19;;;4.66;76.81
7918;BME280;4004;42.624;23.386;2023-02-21T03:48:31;94342.91;;;4.61;76.69
7918;BME280;4004;42.624;23.386;2023-02-21T03:50:58;94344.00;;;4.68;76.57
7918;BME280;4004;42.624;23.386;2023-02-21T03:53:25;94350.09;;;4.69;76.26
7918;BME280;4004;42.624;23.386;2023-02-21T03:55:53;94361.84;;;4.59;76.63
7918;BME280;4004;42.624;23.386;2023-02-21T03:58:19;94353.66;;;4.47;77.04
7918;BME280;4004;42.624;23.386;2023-02-21T04:00:47;94374.94;;;4.29;78.50
7918;BME280;4004;42.624;23.386;2023-02-21T04:03:14;94371.47;;;4.29;79.73
7918;BME280;4004;42.624;23.386;2023-02-21T04:05:41;94371.63;;;4.32;78.41
7918;BME280;4004;42.624;23.386;2023-02-21T04:08:09;94372.31;;;4.38;78.04
7918;BME280;4004;42.624;23.386;2023-02-21T04:10:36;94366.75;;;4.26;78.79
7918;BME280;4004;42.624;23.386;2023-02-21T04:13:04;94364.88;;;4.26;78.37
7918;BME280;4004;42.624;23.386;2023-02-21T04:15:32;94367.25;;;4.28;78.42
7918;BME280;4004;42.624;23.386;2023-02-21T04:17:58;94372.44;;;4.42;77.70
7918;BME280;4004;42.624;23.386;2023-02-21T04:20:25;94381.38;;;4.46;77.24
7918;BME280;4004;42.624;23.386;2023-02-21T04:22:52;94381.09;;;4.47;77.26
7918;BME280;4004;42.624;23.386;2023-02-21T04:25:18;94384.53;;;4.48;77.35
7918;BME280;4004;42.624;23.386;2023-02-21T04:27:45;94395.81;;;4.45;77.95
7918;BME280;4004;42.624;23.386;2023-02-21T04:30:13;94363.00;;;4.18;78.94
7918;BME280;4004;42.624;23.386;2023-02-21T04:32:40;94397.63;;;4.35;79.04
7918;BME280;4004;42.624;23.386;2023-02-21T04:35:07;94389.53;;;4.41;78.37
7918;BME280;4004;42.624;23.386;2023-02-21T04:37:33;94410.00;;;4.40;78.42
7918;BME280;4004;42.624;23.386;2023-02-21T04:40:00;94402.50;;;4.42;78.18
7918;BME280;4004;42.624;23.386;2023-02-21T04:42:27;94396.69;;;4.40;78.66
7918;BME280;4004;42.624;23.386;2023-02-21T04:44:53;94395.81;;;4.45;78.27
7918;BME280;4004;42.624;23.386;2023-02-21T04:47:21;94402.22;;;4.44;78.08
7918;BME280;4004;42.624;23.386;2023-02-21T04:49:48;94392.31;;;4.35;78.91
7918;BME280;4004;42.624;23.386;2023-02-21T04:52:16;94399.50;;;4.35;78.17
7918;BME280;4004;42.624;23.386;2023-02-21T04:54:46;94389.31;;;4.28;78.64
7918;BME280;4004;42.624;23.386;2023-02-21T04:57:13;94391.66;;;4.21;79.21
7918;BME280;4004;42.624;23.386;2023-02-21T04:59:40;94386.47;;;4.16;79.76
7918;BME280;4004;42.624;23.386;2023-02-21T05:02:08;94376.16;;;4.23;79.60
7918;BME280;4004;42.624;23.386;2023-02-21T05:04:36;94365.97;;;4.17;79.75
7918;BME280;4004;42.624;23.386;2023-02-21T05:07:04;94365.34;;;4.20;80.26
7918;BME280;4004;42.624;23.386;2023-02-21T05:09:31;94359.09;;;4.24;79.87
7918;BME280;4004;42.624;23.386;2023-02-21T05:11:57;94363.97;;;4.31;79.17
7918;BME280;4004;42.624;23.386;2023-02-21T05:14:24;94357.09;;;4.39;79.17
7918;BME280;4004;42.624;23.386;2023-02-21T05:16:51;94347.50;;;4.29;78.71
7918;BME280;4004;42.624;23.386;2023-02-21T05:19:19;94364.44;;;4.33;79.26
7918;BME280;4004;42.624;23.386;2023-02-21T05:21:54;94356.94;;;4.35;78.89
7918;BME280;4004;42.624;23.386;2023-02-21T05:24:21;94349.03;;;4.12;79.58
7918;BME280;4004;42.624;23.386;2023-02-21T05:26:48;94350.88;;;4.03;79.88
7918;BME280;4004;42.624;23.386;2023-02-21T05:29:15;94337.03;;;3.84;80.64
7918;BME280;4004;42.624;23.386;2023-02-21T05:31:43;94351.91;;;3.85;80.79
7918;BME280;4004;42.624;23.386;2023-02-21T05:34:10;94353.00;;;3.84;81.09
7918;BME280;4004;42.624;23.386;2023-02-21T05:36:36;94363.78;;;3.79;82.42
7918;BME280;4004;42.624;23.386;2023-02-21T05:39:06;94356.47;;;3.62;82.85
7918;BME280;4004;42.624;23.386;2023-02-21T05:41:33;94360.75;;;4.03;82.00
7918;BME280;4004;42.624;23.386;2023-02-21T05:44:01;94367.25;;;4.28;80.50
7918;BME280;4004;42.624;23.386;2023-02-21T05:46:29;94372.81;;;4.66;78.19
7918;BME280;4004;42.624;23.386;2023-02-21T05:48:58;94373.31;;;4.94;75.50
7918;BME280;4004;42.624;23.386;2023-02-21T05:51:25;94375.22;;;5.11;74.92
7918;BME280;4004;42.624;23.386;2023-02-21T05:53:52;94363.44;;;5.04;74.02
7918;BME280;4004;42.624;23.386;2023-02-21T05:56:20;94372.84;;;4.84;74.59
7918;BME280;4004;42.624;23.386;2023-02-21T05:58:47;94387.59;;;5.07;74.22
7918;BME280;4004;42.624;23.386;2023-02-21T06:01:14;94380.38;;;5.43;72.80
7918;BME280;4004;42.624;23.386;2023-02-21T06:03:41;94380.16;;;5.74;70.47
7918;BME280;4004;42.624;23.386;2023-02-21T06:06:08;94382.69;;;6.17;67.70
7918;BME280;4004;42.624;23.386;2023-02-21T06:08:41;94385.25;;;6.43;65.83
7918;BME280;4004;42.624;23.386;2023-02-21T06:11:08;94394.78;;;6.83;64.59
7918;BME280;4004;42.624;23.386;2023-02-21T06:13:36;94392.72;;;7.31;63.17
7918;BME280;4004;42.624;23.386;2023-02-21T06:16:04;94408.25;;;7.71;60.57
7918;BME280;4004;42.624;23.386;2023-02-21T06:18:31;94398.75;;;8.06;58.40
7918;BME280;4004;42.624;23.386;2023-02-21T06:20:57;94396.09;;;8.06;57.39
7918;BME280;4004;42.624;23.386;2023-02-21T06:23:24;94398.47;;;8.33;56.88
7918;BME280;4004;42.624;23.386;2023-02-21T06:25:51;94415.47;;;8.49;56.23
7918;BME280;4004;42.624;23.386;2023-02-21T06:28:18;94399.84;;;8.51;55.95
7918;BME280;4004;42.624;23.386;2023-02-21T06:30:46;94401.84;;;9.03;55.45
7918;BME280;4004;42.624;23.386;2023-02-21T06:33:12;94400.00;;;9.32;53.93
7918;BME280;4004;42.624;23.386;2023-02-21T06:35:39;94408.06;;;9.20;53.27
7918;BME280;4004;42.624;23.386;2023-02-21T06:38:06;94416.28;;;9.39;52.60
7918;BME280;4004;42.624;23.386;2023-02-21T06:40:33;94414.94;;;9.45;52.68
7918;BME280;4004;42.624;23.386;2023-02-21T06:42:59;94428.75;;;9.60;52.00
7918;BME280;4004;42.624;23.386;2023-02-21T06:45:26;94419.03;;;9.83;52.32
7918;BME280;4004;42.624;23.386;2023-02-21T06:47:54;94421.97;;;10.22;50.63
7918;BME280;4004;42.624;23.386;2023-02-21T06:50:21;94429.81;;;10.75;50.09
7918;BME280;4004;42.624;23.386;2023-02-21T06:52:47;94418.31;;;10.43;49.11
7918;BME280;4004;42.624;23.386;2023-02-21T06:55:19;94407.63;;;10.30;49.55
7918;BME280;4004;42.624;23.386;2023-02-21T06:57:46;94412.50;;;10.41;49.49
7918;BME280;4004;42.624;23.386;2023-02-21T07:00:13;94410.66;;;10.61;49.59
7918;BME280;4004;42.624;23.386;2023-02-21T07:02:41;94408.84;;;10.49;48.94
7918;BME280;4004;42.624;23.386;2023-02-21T07:05:09;94415.78;;;10.34;49.30
7918;BME280;4004;42.624;23.386;2023-02-21T07:07:36;94406.38;;;10.12;49.76
7918;BME280;4004;42.624;23.386;2023-02-21T07:10:03;94401.16;;;10.03;50.51
7918;BME280;4004;42.624;23.386;2023-02-21T07:12:30;94418.66;;;10.41;50.07
7918;BME280;4004;42.624;23.386;2023-02-21T07:14:57;94415.00;;;10.65;48.47
7918;BME280;4004;42.624;23.386;2023-02-21T07:17:24;94409.78;;;10.88;48.52
7918;BME280;4004;42.624;23.386;2023-02-21T07:19:50;94410.50;;;11.20;48.22
7918;BME280;4004;42.624;23.386;2023-02-21T07:22:18;94414.81;;;11.45;47.07
7918;BME280;4004;42.624;23.386;2023-02-21T07:24:50;94413.72;;;11.46;46.64
7918;BME280;4004;42.624;23.386;2023-02-21T07:27:17;94418.56;;;11.40;46.53
7918;BME280;4004;42.624;23.386;2023-02-21T07:29:45;94413.44;;;11.15;46.34
7918;BME280;4004;42.624;23.386;2023-02-21T07:32:12;94405.72;;;10.78;47.16
7918;BME280;4004;42.624;23.386;2023-02-21T07:34:39;94410.13;;;10.55;47.49
7918;BME280;4004;42.624;23.386;2023-02-21T07:37:05;94396.09;;;10.30;47.98
7918;BME280;4004;42.624;23.386;2023-02-21T07:39:34;94390.31;;;10.15;48.43
7918;BME280;4004;42.624;23.386;2023-02-21T07:42:01;94390.28;;;10.44;47.96
7918;BME280;4004;42.624;23.386;2023-02-21T07:44:27;94385.06;;;10.67;47.97
7918;BME280;4004;42.624;23.386;2023-02-21T07:46:54;94391.97;;;10.99;47.40
7918;BME280;4004;42.624;23.386;2023-02-21T07:49:21;94392.28;;;11.14;46.46
7918;BME280;4004;42.624;23.386;2023-02-21T07:51:48;94363.88;;;11.36;46.27
7918;BME280;4004;42.624;23.386;2023-02-21T07:54:15;94396.72;;;11.61;46.23
7918;BME280;4004;42.624;23.386;2023-02-21T07:56:44;94389.84;;;11.64;46.43
7918;BME280;4004;42.624;23.386;2023-02-21T07:59:11;94388.69;;;11.45;50.37
7918;BME280;4004;42.624;23.386;2023-02-21T08:01:38;94382.31;;;11.34;52.86
7918;BME280;4004;42.624;23.386;2023-02-21T08:04:04;94373.66;;;11.25;51.90
7918;BME280;4004;42.624;23.386;2023-02-21T08:06:32;94381.56;;;11.17;50.99
7918;BME280;4004;42.624;23.386;2023-02-21T08:08:59;94372.09;;;11.24;50.08
7918;BME280;4004;42.624;23.386;2023-02-21T08:11:26;94377.34;;;11.16;48.51
7918;BME280;4004;42.624;23.386;2023-02-21T08:13:54;94385.66;;;11.11;47.62
7918;BME280;4004;42.624;23.386;2023-02-21T08:16:21;94383.59;;;11.05;47.44
7918;BME280;4004;42.624;23.386;2023-02-21T08:18:47;94391.91;;;11.15;47.18
7918;BME280;4004;42.624;23.386;2023-02-21T08:21:15;94379.94;;;11.13;47.29
7918;BME280;4004;42.624;23.386;2023-02-21T08:23:42;94384.31;;;11.02;47.18
7918;BME280;4004;42.624;23.386;2023-02-21T08:26:09;94376.38;;;10.73;47.78
7918;BME280;4004;42.624;23.386;2023-02-21T08:28:36;94372.06;;;10.69;47.88
7918;BME280;4004;42.624;23.386;2023-02-21T08:31:05;94361.63;;;10.83;47.84
7918;BME280;4004;42.624;23.386;2023-02-21T08:33:32;94364.66;;;10.82;47.71
7918;BME280;4004;42.624;23.386;2023-02-21T08:35:59;94364.84;;;10.73;48.22
7918;BME280;4004;42.624;23.386;2023-02-21T08:38:26;94355.06;;;11.00;48.11
7918;BME280;4004;42.624;23.386;2023-02-21T08:40:53;94358.34;;;11.29;47.02
7918;BME280;4004;42.624;23.386;2023-02-21T08:43:19;94364.50;;;11.29;46.87
7918;BME280;4004;42.624;23.386;2023-02-21T08:45:46;94367.22;;;11.29;46.75
7918;BME280;4004;42.624;23.386;2023-02-21T08:48:14;94363.53;;;11.37;46.38
7918;BME280;4004;42.624;23.386;2023-02-21T08:50:41;94361.34;;;11.43;46.63
7918;BME280;4004;42.624;23.386;2023-02-21T08:53:08;94369.69;;;11.38;45.78
7918;BME280;4004;42.624;23.386;2023-02-21T08:55:37;94362.78;;;11.56;45.88
7918;BME280;4004;42.624;23.386;2023-02-21T08:58:03;94360.84;;;11.57;45.92
7918;BME280;4004;42.624;23.386;2023-02-21T09:00:31;94366.78;;;11.47;46.01
7918;BME280;4004;42.624;23.386;2023-02-21T09:02:58;94362.75;;;11.37;47.26
7918;BME280;4004;42.624;23.386;2023-02-21T09:05:28;94366.56;;;11.36;47.17
7918;BME280;4004;42.624;23.386;2023-02-21T09:07:56;94348.59;;;11.40;46.57
7918;BME280;4004;42.624;23.386;2023-02-21T09:10:27;94346.63;;;11.37;47.30
7918;BME280;4004;42.624;23.386;2023-02-21T09:12:54;94348.16;;;11.38;46.65
7918;BME280;4004;42.624;23.386;2023-02-21T09:15:21;94351.28;;;11.40;46.71
7918;BME280;4004;42.624;23.386;2023-02-21T09:17:48;94352.84;;;11.41;47.04
7918;BME280;4004;42.624;23.386;2023-02-21T09:20:17;94349.44;;;11.64;46.79
7918;BME280;4004;42.624;23.386;2023-02-21T09:22:46;94350.94;;;11.61;46.86
7918;BME280;4004;42.624;23.386;2023-02-21T09:25:15;94341.91;;;11.73;47.24
7918;BME280;4004;42.624;23.386;2023-02-21T09:27:42;94343.03;;;11.91;46.61
7918;BME280;4004;42.624;23.386;2023-02-21T09:30:11;94337.00;;;11.98;46.61
7918;BME280;4004;42.624;23.386;2023-02-21T09:32:39;94335.66;;;12.08;45.63
7918;BME280;4004;42.624;23.386;2023-02-21T09:35:06;94332.88;;;12.04;45.70
7918;BME280;4004;42.624;23.386;2023-02-21T09:37:36;94326.09;;;12.14;45.57
7918;BME280;4004;42.624;23.386;2023-02-21T09:40:07;94320.72;;;12.14;45.89
7918;BME280;4004;42.624;23.386;2023-02-21T09:42:37;94326.38;;;12.05;45.50
7918;BME280;4004;42.624;23.386;2023-02-21T09:45:12;94324.03;;;12.03;44.95
7918;BME280;4004;42.624;23.386;2023-02-21T09:47:40;94323.28;;;12.07;44.38
7918;BME280;4004;42.624;23.386;2023-02-21T09:50:12;94322.81;;;12.24;44.40
7918;BME280;4004;42.624;23.386;2023-02-21T09:52:41;94313.59;;;12.25;44.69
7918;BME280;4004;42.624;23.386;2023-02-21T09:55:15;94305.09;;;12.23;44.86
7918;BME280;4004;42.624;23.386;2023-02-21T09:57:47;94311.97;;;12.20;45.18
7918;BME280;4004;42.624;23.386;2023-02-21T10:00:18;94305.66;;;12.36;44.45
7918;BME280;4004;42.624;23.386;2023-02-21T10:02:56;94296.81;;;12.35;44.40
7918;BME280;4004;42.624;23.386;2023-02-21T10:05:33;94295.03;;;12.47;44.60
7918;BME280;4004;42.624;23.386;2023-02-21T10:08:08;94287.13;;;12.57;44.29
7918;BME280;4004;42.624;23.386;2023-02-21T10:10:43;94284.34;;;12.54;44.60
7918;BME280;4004;42.624;23.386;2023-02-21T10:13:21;94277.16;;;12.61;44.14
7918;BME280;4004;42.624;23.386;2023-02-21T10:15:52;94272.47;;;12.85;43.78
7918;BME280;4004;42.624;23.386;2023-02-21T10:18:27;94283.44;;;12.99;43.31
7918;BME280;4004;42.624;23.386;2023-02-21T10:20:59;94274.13;;;13.27;42.23
7918;BME280;4004;42.624;23.386;2023-02-21T10:23:34;94267.06;;;13.49;41.74
7918;BME280;4004;42.624;23.386;2023-02-21T10:26:06;94264.09;;;13.58;41.08
7918;BME280;4004;42.624;23.386;2023-02-21T10:28:35;94262.69;;;13.71;41.46
7918;BME280;4004;42.624;23.386;2023-02-21T10:31:06;94259.25;;;13.78;41.40
7918;BME280;4004;42.624;23.386;2023-02-21T10:33:36;94249.72;;;13.87;40.31
7918;BME280;4004;42.624;23.386;2023-02-21T10:36:10;94247.13;;;14.02;40.20
7918;BME280;4004;42.624;23.386;2023-02-21T10:38:39;94239.53;;;14.18;38.31
7918;BME280;4004;42.624;23.386;2023-02-21T10:41:09;94233.06;;;14.34;35.84
7918;BME280;4004;42.624;23.386;2023-02-21T10:43:39;94211.03;;;14.31;36.54
7918;BME280;4004;42.624;23.386;2023-02-21T10:46:10;94230.97;;;14.61;36.04
7918;BME280;4004;42.624;23.386;2023-02-21T10:48:40;94229.88;;;14.76;35.15
7918;BME280;4004;42.624;23.386;2023-02-21T10:51:09;94225.66;;;14.79;34.90
7918;BME280;4004;42.624;23.386;2023-02-21T10:53:38;94216.00;;;14.81;35.44
7918;BME280;4004;42.624;23.386;2023-02-21T10:56:09;94210.59;;;14.88;35.44
7918;BME280;4004;42.624;23.386;2023-02-21T10:58:46;94200.97;;;14.98;35.26
7918;BME280;4004;42.624;23.386;2023-02-21T11:01:16;94194.41;;;14.99;35.63
7918;BME280;4004;42.624;23.386;2023-02-21T11:03:44;94194.06;;;15.08;35.33
7918;BME280;4004;42.624;23.386;2023-02-21T11:06:23;94191.78;;;15.24;35.17
7918;BME280;4004;42.624;23.386;2023-02-21T11:08:50;94189.09;;;15.31;34.95
7918;BME280;4004;42.624;23.386;2023-02-21T11:11:30;94171.31;;;15.38;34.71
7918;BME280;4004;42.624;23.386;2023-02-21T11:14:11;94170.16;;;15.49;33.93
7918;BME280;4004;42.624;23.386;2023-02-21T11:16:44;94170.16;;;15.60;33.95
7918;BME280;4004;42.624;23.386;2023-02-21T11:19:41;94175.25;;;15.72;32.47
7918;BME280;4004;42.624;23.386;2023-02-21T11:22:08;94150.88;;;15.83;31.46
7918;BME280;4004;42.624;23.386;2023-02-21T11:24:44;94154.34;;;15.98;30.94
7918;BME280;4004;42.624;23.386;2023-02-21T11:27:13;94155.50;;;16.04;30.63
7918;BME280;4004;42.624;23.386;2023-02-21T11:29:42;94153.16;;;16.13;30.32
7918;BME280;4004;42.624;23.386;2023-02-21T11:32:11;94148.09;;;16.23;30.30
7918;BME280;4004;42.624;23.386;2023-02-21T11:34:41;94136.84;;;16.31;30.15
7918;BME280;4004;42.624;23.386;2023-02-21T11:37:13;94143.81;;;16.36;30.15
7918;BME280;4004;42.624;23.386;2023-02-21T11:39:40;94126.38;;;16.37;30.15
7918;BME280;4004;42.624;23.386;2023-02-21T11:42:24;94134.91;;;16.39;29.89
7918;BME280;4004;42.624;23.386;2023-02-21T11:45:08;94122.47;;;16.52;29.93
7918;BME280;4004;42.624;23.386;2023-02-21T11:47:41;94120.91;;;16.55;29.71
7918;BME280;4004;42.624;23.386;2023-02-21T11:50:11;94117.41;;;16.54;29.55
7918;BME280;4004;42.624;23.386;2023-02-21T11:52:45;94108.47;;;16.54;30.15
7918;BME280;4004;42.624;23.386;2023-02-21T11:55:15;94103.03;;;16.61;30.01
7918;BME280;4004;42.624;23.386;2023-02-21T11:57:54;94101.50;;;16.60;29.85
7918;BME280;4004;42.624;23.386;2023-02-21T12:00:25;94103.41;;;16.67;29.87
7918;BME280;4004;42.624;23.386;2023-02-21T12:03:07;94104.63;;;16.58;30.02
7918;BME280;4004;42.624;23.386;2023-02-21T12:05:53;94089.47;;;16.54;30.15
7918;BME280;4004;42.624;23.386;2023-02-21T12:08:33;94082.13;;;16.54;30.18
7918;BME280;4004;42.624;23.386;2023-02-21T12:11:12;94078.63;;;16.61;30.12
7918;BME280;4004;42.624;23.386;2023-02-21T12:13:49;94079.38;;;16.65;30.00
7918;BME280;4004;42.624;23.386;2023-02-21T12:16:26;94064.25;;;16.68;30.11
7918;BME280;4004;42.624;23.386;2023-02-21T12:19:10;94071.25;;;16.62;30.00
7918;BME280;4004;42.624;23.386;2023-02-21T12:21:59;94055.72;;;16.62;30.17
7918;BME280;4004;42.624;23.386;2023-02-21T12:24:44;94054.19;;;16.57;30.14
7918;BME280;4004;42.624;23.386;2023-02-21T12:27:17;94043.78;;;16.49;30.33
7918;BME280;4004;42.624;23.386;2023-02-21T12:30:05;94049.56;;;16.54;30.69
7918;BME280;4004;42.624;23.386;2023-02-21T12:32:47;94057.34;;;16.52;30.63
7918;BME280;4004;42.624;23.386;2023-02-21T12:35:42;94044.53;;;16.49;30.81
7918;BME280;4004;42.624;23.386;2023-02-21T12:38:18;94042.25;;;16.44;31.78
7918;BME280;4004;42.624;23.386;2023-02-21T12:40:51;94045.72;;;16.45;31.36
7918;BME280;4004;42.624;23.386;2023-02-21T12:43:39;94042.63;;;16.43;31.18
7918;BME280;4004;42.624;23.386;2023-02-21T12:46:15;94038.81;;;16.33;30.87
7918;BME280;4004;42.624;23.386;2023-02-21T12:48:49;94028.34;;;16.31;31.03
7918;BME280;4004;42.624;23.386;2023-02-21T12:51:20;94031.03;;;16.35;31.15
7918;BME280;4004;42.624;23.386;2023-02-21T12:53:54;94028.72;;;16.37;31.01
7918;BME280;4004;42.624;23.386;2023-02-21T12:56:25;94027.19;;;16.29;30.99
7918;BME280;4004;42.624;23.386;2023-02-21T12:58:58;94031.41;;;16.41;30.99
7918;BME280;4004;42.624;23.386;2023-02-21T13:01:31;94031.75;;;16.50;30.81
7918;BME280;4004;42.624;23.386;2023-02-21T13:04:08;94033.31;;;16.47;30.59
7918;BME280;4004;42.624;23.386;2023-02-21T13:06:44;94027.09;;;16.50;30.57
7918;BME280;4004;42.624;23.386;2023-02-21T13:09:19;94028.22;;;16.60;30.63
7918;BME280;4004;42.624;23.386;2023-02-21T13:12:05;94029.41;;;16.55;30.75
7918;BME280;4004;42.624;23.386;2023-02-21T13:14:40;94025.91;;;16.55;30.57
7918;BME280;4004;42.624;23.386;2023-02-21T13:17:11;94014.63;;;16.60;30.36
7918;BME280;4004;42.624;23.386;2023-02-21T13:19:42;94005.34;;;16.57;30.41
7918;BME280;4004;42.624;23.386;2023-02-21T13:25:39;94001.44;;;16.66;30.24
7918;BME280;4004;42.624;23.386;2023-02-21T13:28:14;94009.19;;;16.64;29.98
7918;BME280;4004;42.624;23.386;2023-02-21T13:30:45;93993.69;;;16.61;30.10
7918;BME280;4004;42.624;23.386;2023-02-21T13:33:27;94003.41;;;16.62;30.24
7918;BME280;4004;42.624;23.386;2023-02-21T13:35:57;93998.72;;;16.66;30.21
7918;BME280;4004;42.624;23.386;2023-02-21T13:38:27;93995.56;;;16.71;30.33
7918;BME280;4004;42.624;23.386;2023-02-21T13:41:03;93994.78;;;16.74;30.57
7918;BME280;4004;42.624;23.386;2023-02-21T13:43:32;93969.69;;;16.59;30.30
7918;BME280;4004;42.624;23.386;2023-02-21T13:49:39;93991.72;;;16.65;30.63
7918;BME280;4004;42.624;23.386;2023-02-21T13:52:23;93982.47;;;16.58;30.26
7918;BME280;4004;42.624;23.386;2023-02-21T13:55:28;93977.34;;;16.75;30.45
7918;BME280;4004;42.624;23.386;2023-02-21T13:58:32;93975.81;;;16.70;30.18
7918;BME280;4004;42.624;23.386;2023-02-21T14:01:15;93985.47;;;16.82;29.68